»·PEaware :: CJC2674 KPSP-KSBA

CJC2674 :: KPSP-KSBA

FLIGHT INFORMATION

Flight Status: Arrived
Operator:
Colgan Air
More flights by this operator :: More flights under this callsign
Pilot: Walter H. (552)
Aircraft: DEHAVILLAND DASH 8 400
(DH8D)
More flights by this aircraft type
Origin: KPSP Palm Springs Intl
United States
Destination: KSBA Santa Barbara Mun
United States
More flights between these airports :: More routes between these airports
Route: +PSP5 PSP V388 PDZ V197 POM V264 ITSME V186 DEANO V27 KWANG
File this flight plan on PilotEdge
Remarks:
Altitude:
(Current/Filed)
12,000ft
Speed:
(Current/Filed)
280kts
Departed: 19-Jan-16 06:48 PM
Arrived: 19-Jan-16 07:43 PM
Distance/Time
Traveled:
169nm/0:55
Distance/Time
To Go:
Arrived

Flight Plot

Page will automatically refresh every two minutes.

Flight plan parsing failed; only flown route is shown


Map Options




Map Legend


Flown Route
Filed Route
Departure Airport
Arrival Airport
Navaid (VOR, NDB)
Fix

Horizontal Profiles

Position Reports

Time Latitude Longitude Heading Altitude Ground
Speed
19-Jan-16 18:10 33.821008 -116.507557 45 484ft 0kts
19-Jan-16 18:11 33.821008 -116.507557 45 484ft 0kts
19-Jan-16 18:12 33.821008 -116.507557 45 484ft 0kts
19-Jan-16 18:13 33.821008 -116.507557 45 484ft 0kts
19-Jan-16 18:14 33.821008 -116.507557 45 484ft 0kts
19-Jan-16 18:15 33.821008 -116.507557 45 484ft 0kts
19-Jan-16 18:16 33.821008 -116.507557 45 484ft 0kts
19-Jan-16 18:17 33.821008 -116.507557 45 484ft 0kts
19-Jan-16 18:18 33.821008 -116.507557 45 484ft 0kts
19-Jan-16 18:19 33.821008 -116.507557 45 484ft 0kts
19-Jan-16 18:20 33.821008 -116.507557 45 484ft 0kts
19-Jan-16 18:21 33.821008 -116.507557 45 484ft 0kts
19-Jan-16 18:22 33.821008 -116.507557 45 484ft 0kts
19-Jan-16 18:23 33.821008 -116.507557 45 484ft 0kts
19-Jan-16 18:24 33.821008 -116.507557 45 484ft 0kts
19-Jan-16 18:25 33.821008 -116.507557 45 484ft 0kts
19-Jan-16 18:26 33.821008 -116.507557 45 484ft 0kts
19-Jan-16 18:27 33.821008 -116.507557 45 484ft 0kts
19-Jan-16 18:28 33.821008 -116.507557 45 484ft 0kts
19-Jan-16 18:29 33.821008 -116.507557 45 484ft 0kts
19-Jan-16 18:30 33.821008 -116.507557 45 484ft 0kts
19-Jan-16 18:31 33.820777 -116.507872 83 484ft 3kts
19-Jan-16 18:32 33.820775 -116.507893 83 484ft 0kts
19-Jan-16 18:33 33.821537 -116.506157 9 484ft 16kts
19-Jan-16 18:34 33.824197 -116.504852 323 484ft 22kts
19-Jan-16 18:35 33.829923 -116.510049 323 484ft 20kts
19-Jan-16 18:36 33.835493 -116.515009 323 484ft 24kts
19-Jan-16 18:37 33.839114 -116.517703 327 484ft 20kts
19-Jan-16 18:38 33.839461 -116.517768 18 484ft 0kts
19-Jan-16 18:39 33.839461 -116.517768 18 484ft 0kts
19-Jan-16 18:40 33.839461 -116.517768 18 484ft 0kts
19-Jan-16 18:41 33.839461 -116.517768 18 484ft 0kts
19-Jan-16 18:42 33.839461 -116.517768 18 484ft 0kts
19-Jan-16 18:43 33.832443 -116.510126 142 486ft 131kts
19-Jan-16 18:44 33.810265 -116.463484 107 2566ft 188kts
19-Jan-16 18:45 33.814578 -116.404521 21 5071ft 202kts
19-Jan-16 18:46 33.860894 -116.432068 300 7782ft 203kts
19-Jan-16 18:47 33.886059 -116.496155 287 9952ft 214kts
19-Jan-16 18:48 33.904955 -116.566040 283 11782ft 238kts
19-Jan-16 18:49 33.922083 -116.634870 284 11899ft 273kts
19-Jan-16 18:50 33.944972 -116.726243 282 11840ft 293kts
19-Jan-16 18:51 33.945399 -116.842191 266 11825ft 301kts
19-Jan-16 18:52 33.941792 -116.942623 266 11829ft 299kts
19-Jan-16 18:53 33.938908 -117.024716 266 11835ft 295kts
19-Jan-16 18:54 33.935304 -117.123739 266 11826ft 296kts
19-Jan-16 18:55 33.931416 -117.222120 265 11835ft 292kts
19-Jan-16 18:56 33.927032 -117.321077 265 11825ft 298kts
19-Jan-16 18:57 33.922844 -117.420633 265 11825ft 299kts
19-Jan-16 18:58 33.922087 -117.518059 281 11828ft 291kts
19-Jan-16 18:59 33.962829 -117.601583 300 11837ft 292kts
19-Jan-16 19:00 34.011898 -117.680337 301 11827ft 296kts
19-Jan-16 19:01 34.061095 -117.759740 301 11825ft 295kts
19-Jan-16 19:02 34.077005 -117.852077 270 11838ft 282kts
19-Jan-16 19:03 34.076152 -117.947240 268 11836ft 284kts
19-Jan-16 19:04 34.086508 -118.040967 286 11840ft 286kts
19-Jan-16 19:05 34.113901 -118.131234 286 11837ft 287kts
19-Jan-16 19:06 34.141716 -118.222665 286 11825ft 293kts
19-Jan-16 19:07 34.169623 -118.314149 286 11837ft 290kts
19-Jan-16 19:08 34.190054 -118.381385 286 11828ft 296kts
19-Jan-16 19:09 34.218459 -118.475144 286 11829ft 296kts
19-Jan-16 19:10 34.248939 -118.567299 288 11833ft 293kts
19-Jan-16 19:11 34.280557 -118.657994 288 11829ft 293kts
19-Jan-16 19:12 34.311489 -118.748602 288 11825ft 295kts
19-Jan-16 19:13 34.342322 -118.839292 288 11828ft 296kts
19-Jan-16 19:14 34.352469 -118.936123 265 11825ft 292kts
19-Jan-16 19:15 34.345585 -119.034015 264 11833ft 290kts
19-Jan-16 19:16 34.338294 -119.131070 265 11469ft 284kts
19-Jan-16 19:17 34.331162 -119.225072 264 10614ft 278kts
19-Jan-16 19:18 34.324137 -119.318068 265 9751ft 277kts
19-Jan-16 19:19 34.317025 -119.410768 264 8801ft 273kts
19-Jan-16 19:20 34.309987 -119.499569 265 7639ft 249kts
19-Jan-16 19:21 34.314042 -119.579321 280 6237ft 234kts
19-Jan-16 19:22 34.324107 -119.651498 280 5835ft 193kts
19-Jan-16 19:23 34.334558 -119.723845 280 5842ft 236kts
19-Jan-16 19:24 34.346009 -119.803145 280 5835ft 239kts
19-Jan-16 19:25 34.357366 -119.882619 280 5835ft 238kts
19-Jan-16 19:26 34.368725 -119.962146 280 5397ft 247kts
19-Jan-16 19:27 34.378310 -120.044237 271 4071ft 232kts
19-Jan-16 19:28 34.377953 -120.113219 270 3865ft 191kts
19-Jan-16 19:29 34.377669 -120.178897 270 3837ft 198kts
19-Jan-16 19:30 34.396867 -120.234628 346 3832ft 206kts
19-Jan-16 19:31 34.426892 -120.183168 91 3842ft 227kts
19-Jan-16 19:32 34.423919 -120.107001 90 3829ft 215kts
19-Jan-16 19:33 34.423984 -120.037805 88 2960ft 198kts
19-Jan-16 19:34 34.425082 -119.978697 87 2045ft 155kts
19-Jan-16 19:35 34.426007 -119.928872 87 1233ft 149kts
19-Jan-16 19:36 34.426884 -119.882329 87 551ft 128kts
19-Jan-16 19:37 34.427769 -119.842278 87 17ft 53kts
19-Jan-16 19:38 34.428649 -119.838949 346 17ft 0kts
19-Jan-16 19:39 34.428649 -119.838949 346 17ft 0kts
19-Jan-16 19:40 34.428717 -119.838962 352 17ft 5kts
19-Jan-16 19:41 34.427540 -119.835276 182 17ft 10kts
19-Jan-16 19:42 34.426147 -119.837084 178 17ft 3kts
19-Jan-16 19:43 34.426106 -119.837083 178 17ft 0kts
19-Jan-16 19:44 34.426106 -119.837083 178 17ft 0kts
19-Jan-16 19:45 34.426106 -119.837083 178 17ft 0kts

Navigation Log

Ident Type
Flight plan parsing failed, navigation log unavailable